• Join FlightAware (Why Join?)
  • Login
  • US Flag 
12:13AM EDT


 

Airport Tracker/Info


-or-


 

Live Flight TrackerFlight Track Log ✈ AWE3287 ✈ 30-Apr-2013 ✈ KMHT - KPHL

Flight Track Log - Related Links

Times and Time Zones

All times are in EDT time to prevent confusion due to time zone crossing. See the AWE3287 flight status page for this flight to view local times or setup timezone preferences in your user account.

Time Position Orientation Groundspeed Altitude Reporting Facility
EDT Latitude Longitude Course Direction KTS MPH feet Rate Location/Type
12:07PM 42.9167 -71.4167 270° West 151 174 1,300  Level KA90
12:08PM 42.8667 -71.4667 216° Southwest 219 252 3,000 1,260 Climbing KA90
12:08PM 42.8717 -71.4939 284° West 246 283 3,000 2,520 Level Boston Center
12:09PM 42.8808 -71.5900 277° West 275 316 6,400 3,420 Climbing Boston Center
12:10PM 42.9500 -71.9032 270° West  Level FlightAware Approximate
12:10PM 42.9294 -71.6831 306° West 275 316 9,900  Level Boston Center
12:11PM 42.9500 -72.0219 270° West  Level FlightAware Approximate
12:11PM 42.9467 -71.7850 283° West 297 342 12,200  Level Boston Center
12:12PM 42.9501 -72.1407 270° West  Level FlightAware Approximate
12:12PM 42.9722 -71.9181 285° West 329 379 15,300  Level Boston Center
12:13PM 42.9958 -72.0314 286° West 338 389 17,800 2,340 Climbing Boston Center
12:14PM 43.0108 -72.1761 278° West 350 403 20,000 2,040 Climbing Boston Center
12:15PM 43.0150 -72.3008 273° West 361 415 21,900 1,740 Climbing Boston Center
12:16PM 43.0153 -72.4486 270° West 373 429 23,500 1,800 Climbing Boston Center
12:17PM 43.0131 -72.5906 269° West 378 435 25,500 1,200 Climbing Boston Center
12:18PM 42.9689 -72.7353 247° West 391 450 26,000 240 Climbing Boston Center
12:19PM 42.9206 -72.8739 245° Southwest 396 456 26,000  Level Boston Center
12:20PM 42.8700 -73.0264 246° West 408 470 26,000  Level Boston Center
12:21PM 42.8233 -73.1619 245° Southwest 408 470 26,000  Level Boston Center
12:22PM 42.7764 -73.2972 245° Southwest 403 464 26,000  Level Boston Center
12:23PM 42.7294 -73.4350 245° Southwest 403 464 26,000  Level Boston Center
12:24PM 42.6825 -73.5725 245° Southwest 397 457 26,000  Level Boston Center
12:25PM 42.6350 -73.7044 244° Southwest 397 457 26,000  Level Boston Center
12:26PM 42.5878 -73.8389 245° Southwest 402 463 26,000  Level Boston Center
12:27PM 42.5294 -73.9981 244° Southwest 397 457 26,000  Level Boston Center
12:28PM 42.4817 -74.1350 245° Southwest 397 457 26,000  Level Boston Center
12:29PM 42.4358 -74.2658 245° Southwest 397 457 26,000  Level Boston Center
12:30PM 42.3878 -74.3967 244° Southwest 397 457 26,000  Level Boston Center
12:31PM 42.3375 -74.5214 241° Southwest 397 457 26,000 -480 Level Boston Center
12:32PM 42.2850 -74.6486 241° Southwest 391 450 25,100 -1,140 Descending Boston Center
12:33PM 42.2142 -74.7556 228° Southwest 391 450 23,800 -1,440 Descending Boston Center
12:36PM 42.0497 -75.0106 229° Southwest 375 432 20,200 -1,440 Descending New York Center
12:37PM 41.9814 -75.1122 228° Southwest 369 425 19,000 -600 Descending New York Center
12:38PM 41.9103 -75.1800 215° Southwest 361 415 19,000 -240 Level New York Center
12:39PM 41.8264 -75.2467 211° Southwest 361 415 18,600 -1,140 Descending New York Center
12:40PM 41.7342 -75.3211 211° Southwest 361 415 16,800 -1,800 Descending New York Center
12:41PM 41.6525 -75.3878 211° Southwest 351 404 15,100 -1,680 Descending New York Center
12:42PM 41.5728 -75.4517 211° Southwest 351 404 13,500 -1,560 Descending New York Center
12:43PM 41.5042 -75.5078 211° Southwest 337 388 12,000 -780 Descending New York Center
12:44PM 41.4267 -75.5686 210° Southwest 331 381 12,000  Level New York Center
12:45PM 41.3406 -75.6369 211° Southwest 336 387 12,000  Level New York Center
12:46PM 41.2594 -75.6864 205° Southwest 336 387 12,000  Level New York Center
12:47PM 41.1694 -75.6908 182° South 314 361 12,000  Level New York Center
12:48PM 41.0892 -75.6686 168° South 319 367 12,000  Level New York Center
12:49PM 40.9928 -75.6342 165° South 331 381 12,000  Level New York Center
12:50PM 40.9044 -75.6031 165° South 338 389 12,000  Level New York Center
12:51PM 40.8161 -75.5694 164° South 329 379 12,000  Level New York Center
12:52PM 40.7281 -75.5358 164° South 334 384 12,000  Level New York Center
12:53PM 40.6417 -75.5025 164° South 334 384 12,000 -240 Level New York Center
12:54PM 40.5556 -75.4719 165° South 329 379 11,600 -1,080 Descending New York Center
12:55PM 40.4794 -75.4422 163° South 309 356 10,000 -1,080 Descending New York Center
12:56PM 40.4142 -75.4106 160° South 288 331 9,500 -1,140 Descending New York Center
12:57PM 40.3447 -75.3706 156° South 282 325 7,800 -1,260 Descending New York Center
12:58PM 40.2692 -75.3328 159° South 267 307 7,000 -420 Descending New York Center
12:59PM 40.2017 -75.3556 194° South 234 269 7,000  Level New York Center
01:00PM 40.1378 -75.3894 202° Southwest 253 291 7,000  Level New York Center
01:01PM 40.0742 -75.4178 199° South 253 291 7,000 -300 Level New York Center
01:02PM 40.0161 -75.4083 173° South 220 253 6,500 -540 Descending New York Center
01:03PM 39.9606 -75.3911 167° South 213 245 6,000 -300 Descending New York Center
01:04PM 39.9281 -75.4242 218° Southwest 166 191 6,000 -540 Level New York Center
01:05PM 39.9103 -75.5014 253° West 190 219 5,000 -600 Descending New York Center
01:06PM 39.8908 -75.5706 250° West 206 237 4,900 -600 Descending New York Center
01:08PM 39.8167 -75.6500 219° Southwest 164 189 3,000 -600 Descending Philadelphia TRACON
01:09PM 39.8000 -75.6000 113° Southeast 145 167 3,000  Level Philadelphia TRACON
01:10PM 39.8167 -75.5500 67° East 140 161 3,000  Level Philadelphia TRACON
01:11PM 39.8167 -75.5000 90° East 142 163 3,000 -180 Level Philadelphia TRACON
01:12PM 39.8333 -75.4500 67° East 141 162 2,700 -600 Descending Philadelphia TRACON
01:13PM 39.8333 -75.3833 90° East 141 162 1,700 -720 Descending Philadelphia TRACON
01:14PM 39.8500 -75.3333 67° East 126 145 1,100 -600 Descending Philadelphia TRACON